createdAt,value
2018-06-30T00:01:35.009Z,2.90
2018-06-30T00:04:04.703Z,3.20
2018-06-30T00:06:34.311Z,3.27
2018-06-30T00:09:03.948Z,3.10
2018-06-30T00:11:33.667Z,3.30
2018-06-30T00:14:02.522Z,3.60
2018-06-30T00:16:31.952Z,3.10
2018-06-30T00:19:01.632Z,3.70
2018-06-30T00:21:32.469Z,3.70
2018-06-30T00:24:02.075Z,3.50
2018-06-30T00:26:31.713Z,3.90
2018-06-30T00:29:01.495Z,3.90
2018-06-30T00:31:32.508Z,3.40
2018-06-30T00:34:01.968Z,4.00
2018-06-30T00:36:31.657Z,3.53
2018-06-30T00:39:01.278Z,4.00
2018-06-30T00:41:30.796Z,4.00
2018-06-30T00:44:00.300Z,3.80
2018-06-30T00:46:29.808Z,3.60
2018-06-30T00:48:59.586Z,4.00
2018-06-30T00:51:30.319Z,3.97
2018-06-30T00:53:59.824Z,4.13
2018-06-30T00:56:29.634Z,3.90
2018-06-30T00:58:59.330Z,4.17
2018-06-30T01:01:29.262Z,4.37
2018-06-30T01:03:58.801Z,4.00
2018-06-30T01:06:28.476Z,4.03
2018-06-30T01:08:58.115Z,4.40
2018-06-30T01:11:27.622Z,4.37
2018-06-30T01:13:57.303Z,4.70
2018-06-30T01:16:27.010Z,4.07
2018-06-30T01:18:56.653Z,4.17
2018-06-30T01:21:26.356Z,4.17
2018-06-30T01:23:56.038Z,4.47
2018-06-30T01:26:25.472Z,4.33
2018-06-30T01:28:55.360Z,4.50
2018-06-30T01:31:24.889Z,4.20
2018-06-30T01:33:54.565Z,4.20
2018-06-30T01:36:24.020Z,4.70
2018-06-30T01:38:53.684Z,4.27
2018-06-30T01:41:24.417Z,4.70
2018-06-30T01:43:53.963Z,4.63
2018-06-30T01:46:23.741Z,4.93
2018-06-30T01:48:53.242Z,4.80
2018-06-30T01:51:22.847Z,4.73
2018-06-30T01:53:52.352Z,4.60
2018-06-30T01:56:21.884Z,4.70
2018-06-30T01:58:51.672Z,4.70
2018-06-30T02:01:21.313Z,4.80
2018-06-30T02:03:50.882Z,4.70
2018-06-30T02:06:20.530Z,4.70
2018-06-30T02:08:50.207Z,4.83
2018-06-30T02:11:19.941Z,5.30
2018-06-30T02:13:49.424Z,5.10
2018-06-30T02:16:18.856Z,5.23
2018-06-30T02:18:48.371Z,4.77
2018-06-30T02:21:17.977Z,5.47
2018-06-30T02:23:47.544Z,5.23
2018-06-30T02:26:16.976Z,5.40
2018-06-30T02:28:46.759Z,4.93
2018-06-30T02:31:16.366Z,5.70
2018-06-30T02:33:46.178Z,5.20
2018-06-30T02:36:16.001Z,5.30
2018-06-30T02:38:45.798Z,5.17
2018-06-30T02:41:16.883Z,5.10
2018-06-30T02:43:46.755Z,5.37
2018-06-30T02:46:16.316Z,5.20
2018-06-30T02:48:45.872Z,5.00
2018-06-30T02:51:16.613Z,4.80
2018-06-30T02:53:46.315Z,5.37
2018-06-30T02:56:15.828Z,5.80
2018-06-30T02:58:45.795Z,5.53
2018-06-30T03:01:15.651Z,5.97
2018-06-30T03:03:45.568Z,5.13
2018-06-30T03:06:15.309Z,4.90
2018-06-30T03:08:44.920Z,5.00
2018-06-30T03:11:14.597Z,5.23
2018-06-30T03:13:44.589Z,5.23
2018-06-30T03:16:16.779Z,5.70
2018-06-30T03:18:47.724Z,5.20
2018-06-30T03:21:17.254Z,5.40
2018-06-30T03:23:46.762Z,5.10
2018-06-30T03:26:16.438Z,5.50
2018-06-30T03:28:46.073Z,5.30
2018-06-30T03:31:15.589Z,4.87
2018-06-30T03:33:45.389Z,5.60
2018-06-30T03:36:14.969Z,5.40
2018-06-30T03:38:44.581Z,5.90
2018-06-30T03:41:15.313Z,5.40
2018-06-30T03:43:45.029Z,5.60
2018-06-30T03:46:14.884Z,6.23
2018-06-30T03:48:44.547Z,6.10
2018-06-30T03:51:14.152Z,5.70
2018-06-30T03:53:43.589Z,5.60
2018-06-30T03:56:13.260Z,5.77
2018-06-30T03:58:42.872Z,5.93
2018-06-30T04:01:13.709Z,6.20
2018-06-30T04:03:43.210Z,6.13
2018-06-30T04:06:12.952Z,6.40
2018-06-30T04:08:42.428Z,5.67
2018-06-30T04:11:13.265Z,6.23
2018-06-30T04:13:42.776Z,5.63
2018-06-30T04:16:12.207Z,6.33
2018-06-30T04:18:41.690Z,6.20
2018-06-30T04:21:11.217Z,6.47
2018-06-30T04:23:41.012Z,6.43
2018-06-30T04:26:10.604Z,5.70
2018-06-30T04:28:40.212Z,5.97
2018-06-30T04:31:11.048Z,5.80
2018-06-30T04:33:40.558Z,5.47
2018-06-30T04:36:10.065Z,5.40
2018-06-30T04:38:39.972Z,5.87
2018-06-30T04:41:10.533Z,6.20
2018-06-30T04:43:40.212Z,6.23
2018-06-30T04:46:09.643Z,5.80
2018-06-30T04:48:39.162Z,5.70
2018-06-30T04:51:09.114Z,5.60
2018-06-30T04:53:38.576Z,5.07
2018-06-30T04:56:08.255Z,6.03
2018-06-30T04:58:37.961Z,5.70
2018-06-30T05:01:08.695Z,5.73
2018-06-30T05:03:38.406Z,5.70
2018-06-30T05:06:08.120Z,6.00
2018-06-30T05:08:37.825Z,6.10
2018-06-30T05:11:08.559Z,5.40
2018-06-30T05:13:38.064Z,5.10
2018-06-30T05:16:07.674Z,5.20
2018-06-30T05:18:37.484Z,5.53
2018-06-30T05:21:08.150Z,5.90
2018-06-30T05:23:37.944Z,5.00
2018-06-30T05:26:07.535Z,5.13
2018-06-30T05:28:37.048Z,5.43
2018-06-30T05:31:06.752Z,4.87
2018-06-30T05:33:36.268Z,5.27
2018-06-30T05:36:05.895Z,5.03
2018-06-30T05:38:35.477Z,5.00
2018-06-30T05:41:05.705Z,5.50
2018-06-30T05:43:35.232Z,5.20
2018-06-30T05:46:04.945Z,5.00
2018-06-30T05:48:33.746Z,5.83
2018-06-30T05:51:03.563Z,5.30
2018-06-30T05:53:33.327Z,5.50
2018-06-30T05:56:03.039Z,5.30
2018-06-30T05:58:32.674Z,5.20
2018-06-30T06:01:02.360Z,5.63
2018-06-30T06:03:31.765Z,5.40
2018-06-30T06:06:01.479Z,5.10
2018-06-30T06:08:30.969Z,5.63
2018-06-30T06:11:00.576Z,5.20
2018-06-30T06:13:30.499Z,5.73
2018-06-30T06:15:59.996Z,6.00
2018-06-30T06:18:29.509Z,5.20
2018-06-30T06:20:59.108Z,5.47
2018-06-30T06:23:28.718Z,5.57
2018-06-30T06:25:58.290Z,5.47
2018-06-30T06:28:28.373Z,5.03
2018-06-30T06:31:02.256Z,4.80
2018-06-30T06:33:31.963Z,5.07
2018-06-30T06:36:01.598Z,5.47
2018-06-30T06:38:31.279Z,5.87
2018-06-30T06:41:02.011Z,5.50
2018-06-30T06:43:32.076Z,5.30
2018-06-30T06:46:01.585Z,5.33
2018-06-30T06:48:31.244Z,5.37
2018-06-30T06:51:02.021Z,5.43
2018-06-30T06:53:31.068Z,5.30
2018-06-30T06:56:00.784Z,4.83
2018-06-30T06:58:30.989Z,5.33
2018-06-30T07:01:00.552Z,6.37
2018-06-30T07:03:29.667Z,5.90
2018-06-30T07:06:00.320Z,5.40
2018-06-30T07:08:30.425Z,5.30
2018-06-30T07:11:00.253Z,4.70
2018-06-30T07:13:29.743Z,5.40
2018-06-30T07:15:59.708Z,4.80
2018-06-30T07:18:29.462Z,5.37
2018-06-30T07:20:59.141Z,5.23
2018-06-30T07:23:28.824Z,6.67
2018-06-30T07:25:58.233Z,5.73
2018-06-30T07:28:27.844Z,5.30
2018-06-30T07:30:57.656Z,5.73
2018-06-30T07:33:27.488Z,5.53
2018-06-30T07:35:58.549Z,5.63
2018-06-30T07:38:28.964Z,6.03
2018-06-30T07:40:58.917Z,5.70
2018-06-30T07:43:28.807Z,6.37
2018-06-30T07:45:58.424Z,6.00
2018-06-30T07:48:28.101Z,5.57
2018-06-30T07:50:57.809Z,5.57
2018-06-30T07:53:27.609Z,5.63
2018-06-30T07:56:02.170Z,5.93
2018-06-30T07:58:31.732Z,8.30
2018-06-30T08:01:01.301Z,5.70
2018-06-30T08:03:30.821Z,5.77
2018-06-30T08:06:00.581Z,5.53
2018-06-30T08:08:30.372Z,6.07
2018-06-30T08:11:00.205Z,5.43
2018-06-30T08:13:30.116Z,5.63
2018-06-30T08:15:59.776Z,6.20
2018-06-30T08:18:29.317Z,5.87
2018-06-30T08:20:59.344Z,6.73
2018-06-30T08:23:29.072Z,5.63
2018-06-30T08:25:58.691Z,6.43
2018-06-30T08:28:28.495Z,5.93
2018-06-30T08:30:57.564Z,6.37
2018-06-30T08:33:27.720Z,5.43
2018-06-30T08:35:57.325Z,6.03
2018-06-30T08:38:26.928Z,6.37
2018-06-30T08:40:56.985Z,5.40
2018-06-30T08:43:26.579Z,5.53
2018-06-30T08:45:56.061Z,5.27
2018-06-30T08:48:25.883Z,5.30
2018-06-30T08:50:55.700Z,5.83
2018-06-30T08:53:25.248Z,5.47
2018-06-30T08:55:54.999Z,5.10
2018-06-30T08:58:24.472Z,4.63
2018-06-30T09:00:54.107Z,5.23
2018-06-30T09:03:23.785Z,5.27
2018-06-30T09:05:53.973Z,4.73
2018-06-30T09:08:23.612Z,4.97
2018-06-30T09:10:53.360Z,5.13
2018-06-30T09:13:23.159Z,5.13
2018-06-30T09:15:52.957Z,5.33
2018-06-30T09:18:22.588Z,4.93
2018-06-30T09:20:52.202Z,4.30
2018-06-30T09:23:21.531Z,4.23
2018-06-30T09:25:50.820Z,4.60
2018-06-30T09:28:20.085Z,4.20
2018-06-30T09:30:49.370Z,4.40
2018-06-30T09:33:18.699Z,4.67
2018-06-30T09:35:48.061Z,4.10
2018-06-30T09:38:17.670Z,3.60
2018-06-30T09:40:47.013Z,4.10
2018-06-30T09:43:16.320Z,3.52
2018-06-30T09:45:45.621Z,3.98
2018-06-30T09:48:14.324Z,3.70
2018-06-30T09:50:43.848Z,3.20
2018-06-30T09:53:13.328Z,3.85
2018-06-30T09:55:42.672Z,3.95
2018-06-30T09:58:11.952Z,3.72
2018-06-30T10:00:47.516Z,3.60
2018-06-30T10:03:16.849Z,3.70
2018-06-30T10:05:46.213Z,4.08
2018-06-30T10:08:15.523Z,3.87
2018-06-30T10:10:45.408Z,3.40
2018-06-30T10:13:14.669Z,3.98
2018-06-30T10:15:44.031Z,3.85
2018-06-30T10:18:13.292Z,3.62
2018-06-30T10:20:42.740Z,4.37
2018-06-30T10:23:12.157Z,3.85
2018-06-30T10:25:41.413Z,4.00
2018-06-30T10:28:11.387Z,3.30
2018-06-30T10:30:41.509Z,3.47
2018-06-30T10:33:11.581Z,3.62
2018-06-30T10:35:40.940Z,3.50
2018-06-30T10:38:10.249Z,3.47
2018-06-30T10:40:39.631Z,3.42
2018-06-30T10:43:09.287Z,3.42
2018-06-30T10:45:41.727Z,3.52
2018-06-30T10:48:11.686Z,3.83
2018-06-30T10:50:41.078Z,4.00
2018-06-30T10:53:10.704Z,3.47
2018-06-30T10:55:40.089Z,3.30
2018-06-30T10:58:09.377Z,3.52
2018-06-30T11:00:38.867Z,3.40
2018-06-30T11:03:08.891Z,3.47
2018-06-30T11:05:37.679Z,3.45
2018-06-30T11:08:09.499Z,3.27
2018-06-30T11:10:39.011Z,3.77
2018-06-30T11:13:08.360Z,3.45
2018-06-30T11:15:37.671Z,3.15
2018-06-30T11:18:07.412Z,3.22
2018-06-30T11:20:36.708Z,3.30
2018-06-30T11:23:06.064Z,3.33
2018-06-30T11:25:35.592Z,3.37
2018-06-30T11:28:05.158Z,2.92
2018-06-30T11:30:34.541Z,3.12
2018-06-30T11:33:05.232Z,3.02
2018-06-30T11:35:35.368Z,2.92
2018-06-30T11:38:04.752Z,2.90
2018-06-30T11:40:34.257Z,3.10
2018-06-30T11:43:04.047Z,2.98
2018-06-30T11:45:33.341Z,3.08
2018-06-30T11:48:04.137Z,2.90
2018-06-30T11:50:43.107Z,2.83
2018-06-30T11:53:12.460Z,3.02
2018-06-30T11:55:41.806Z,2.95
2018-06-30T11:58:11.225Z,2.98
2018-06-30T12:00:40.821Z,3.37
2018-06-30T12:03:11.410Z,2.60
2018-06-30T12:05:40.728Z,2.87
2018-06-30T12:08:10.024Z,2.75
2018-06-30T12:10:39.373Z,2.77
2018-06-30T12:13:09.061Z,2.72
2018-06-30T12:15:39.184Z,2.67
2018-06-30T12:18:08.846Z,2.80
2018-06-30T12:20:39.499Z,2.37
2018-06-30T12:23:08.812Z,2.62
2018-06-30T12:25:38.113Z,2.37
2018-06-30T12:28:07.756Z,2.30
2018-06-30T12:30:38.434Z,2.50
2018-06-30T12:33:07.746Z,2.37
2018-06-30T12:35:46.570Z,2.30
2018-06-30T12:38:31.825Z,2.20
2018-06-30T12:41:01.960Z,2.52
2018-06-30T12:43:31.331Z,2.47
2018-06-30T12:46:00.907Z,2.27
2018-06-30T12:48:30.248Z,2.20
2018-06-30T12:50:59.607Z,2.00
2018-06-30T12:53:29.225Z,2.10
2018-06-30T12:55:58.551Z,2.10
2018-06-30T12:58:27.863Z,2.30
2018-06-30T13:00:57.364Z,2.02
2018-06-30T13:03:26.881Z,2.55
2018-06-30T13:05:56.161Z,2.08
2018-06-30T13:08:25.436Z,2.30
2018-06-30T13:10:54.773Z,2.00
2018-06-30T13:13:24.068Z,2.10
2018-06-30T13:15:53.336Z,2.17
2018-06-30T13:18:22.726Z,2.00
2018-06-30T13:20:55.187Z,2.40
2018-06-30T13:23:25.707Z,2.30
2018-06-30T13:25:55.701Z,1.70
2018-06-30T13:28:25.044Z,2.10
2018-06-30T13:30:54.622Z,2.10
2018-06-30T13:33:24.122Z,1.95
2018-06-30T13:35:53.429Z,1.98
2018-06-30T13:38:23.349Z,1.98
2018-06-30T13:40:52.958Z,1.90
2018-06-30T13:43:21.808Z,1.65
2018-06-30T13:45:51.047Z,1.85
2018-06-30T13:48:19.856Z,4.12
2018-06-30T13:50:49.297Z,1.60
2018-06-30T13:53:18.647Z,1.65
2018-06-30T13:55:48.530Z,1.77
2018-06-30T13:58:17.952Z,1.70
2018-06-30T14:00:47.251Z,1.67
2018-06-30T14:03:16.549Z,1.60
2018-06-30T14:05:45.933Z,1.50
2018-06-30T14:08:15.163Z,1.50
2018-06-30T14:10:44.558Z,1.60
2018-06-30T14:13:13.856Z,1.52
2018-06-30T14:15:43.202Z,1.77
2018-06-30T14:18:12.585Z,1.50
2018-06-30T14:20:41.869Z,1.80
2018-06-30T14:23:17.398Z,1.50
2018-06-30T14:25:46.825Z,1.40
2018-06-30T14:28:16.129Z,1.30
2018-06-30T14:30:44.930Z,1.22
2018-06-30T14:33:13.694Z,1.60
2018-06-30T14:35:42.960Z,1.47
2018-06-30T14:38:12.327Z,1.12
2018-06-30T14:40:41.657Z,1.90
2018-06-30T14:43:10.888Z,1.37
2018-06-30T14:45:40.306Z,1.32
2018-06-30T14:48:09.692Z,1.30
2018-06-30T14:50:39.029Z,1.30
2018-06-30T14:53:08.644Z,1.30
2018-06-30T14:55:37.931Z,1.40
2018-06-30T14:58:07.482Z,1.40
2018-06-30T15:00:36.805Z,1.20
2018-06-30T15:03:06.195Z,1.40
2018-06-30T15:05:35.540Z,1.10
2018-06-30T15:08:04.907Z,1.00
2018-06-30T15:10:34.280Z,1.20
2018-06-30T15:13:03.631Z,1.30
2018-06-30T15:15:32.895Z,1.45
2018-06-30T15:18:02.234Z,1.60
2018-06-30T15:20:31.520Z,1.50
2018-06-30T15:23:00.895Z,1.30
2018-06-30T15:25:30.200Z,1.30
2018-06-30T15:27:59.491Z,1.72
2018-06-30T15:30:28.847Z,1.25
2018-06-30T15:34:01.412Z,1.60
2018-06-30T15:36:30.766Z,1.47
2018-06-30T15:39:00.060Z,1.40
2018-06-30T15:41:29.707Z,1.30
2018-06-30T15:43:59.096Z,1.40
2018-06-30T15:46:28.335Z,1.50
2018-06-30T15:48:57.659Z,1.30
2018-06-30T15:51:27.100Z,1.52
2018-06-30T15:53:56.502Z,1.25
2018-06-30T15:56:25.741Z,1.30
2018-06-30T15:58:54.541Z,1.60
2018-06-30T16:01:24.037Z,1.30
2018-06-30T16:03:54.421Z,1.30
2018-06-30T16:06:23.749Z,1.50
2018-06-30T16:08:53.054Z,1.30
2018-06-30T16:11:22.425Z,1.50
2018-06-30T16:13:51.830Z,1.50
2018-06-30T16:16:21.259Z,1.30
2018-06-30T16:18:50.544Z,1.62
2018-06-30T16:21:19.886Z,1.52
2018-06-30T16:23:49.149Z,1.95
2018-06-30T16:26:18.472Z,1.60
2018-06-30T16:28:47.813Z,1.65
2018-06-30T16:31:17.189Z,1.75
2018-06-30T16:33:46.504Z,1.70
2018-06-30T16:36:15.844Z,1.65
2018-06-30T16:38:45.400Z,1.98
2018-06-30T16:41:14.804Z,1.87
2018-06-30T16:43:44.099Z,2.10
2018-06-30T16:46:13.568Z,2.52
2018-06-30T16:48:42.937Z,2.47
2018-06-30T16:51:12.401Z,2.00
2018-06-30T16:53:41.696Z,2.40
2018-06-30T16:56:10.963Z,2.98
2018-06-30T16:58:40.304Z,2.80
2018-06-30T17:01:09.788Z,2.62
2018-06-30T17:03:39.087Z,2.80
2018-06-30T17:06:08.380Z,2.58
2018-06-30T17:08:37.765Z,2.92
2018-06-30T17:11:07.496Z,3.05
2018-06-30T17:13:36.815Z,3.12
2018-06-30T17:16:06.373Z,2.98
2018-06-30T17:18:36.120Z,2.95
2018-06-30T17:21:06.448Z,2.77
2018-06-30T17:23:36.371Z,3.17
2018-06-30T17:26:05.147Z,3.00
2018-06-30T17:28:34.442Z,3.02
2018-06-30T17:31:03.764Z,2.77
2018-06-30T17:33:32.763Z,3.10
2018-06-30T17:36:02.528Z,3.33
2018-06-30T17:38:32.151Z,3.20
2018-06-30T17:41:01.770Z,3.02
2018-06-30T17:43:31.537Z,3.30
2018-06-30T17:46:01.272Z,3.10
2018-06-30T17:48:31.386Z,3.12
2018-06-30T17:51:01.393Z,3.17
2018-06-30T17:53:31.077Z,3.17
2018-06-30T17:56:00.320Z,3.40
2018-06-30T17:58:29.868Z,3.62
2018-06-30T18:00:59.850Z,3.45
2018-06-30T18:03:29.464Z,3.42
2018-06-30T18:05:58.542Z,3.17
2018-06-30T18:08:28.240Z,2.87
2018-06-30T18:10:58.147Z,3.55
2018-06-30T18:13:27.619Z,3.27
2018-06-30T18:15:57.280Z,3.27
2018-06-30T18:18:56.916Z,3.62
2018-06-30T18:21:32.389Z,3.22
2018-06-30T18:24:01.952Z,3.50
2018-06-30T18:26:31.886Z,3.45
2018-06-30T18:29:01.426Z,2.87
2018-06-30T18:31:31.536Z,3.30
2018-06-30T18:34:01.052Z,3.50
2018-06-30T18:36:31.073Z,3.40
2018-06-30T18:39:00.732Z,3.23
2018-06-30T18:41:30.537Z,3.60
2018-06-30T18:44:00.407Z,3.40
2018-06-30T18:46:30.077Z,3.50
2018-06-30T18:48:59.800Z,3.23
2018-06-30T18:51:29.780Z,3.60
2018-06-30T18:54:00.078Z,3.30
2018-06-30T18:56:29.645Z,3.67
2018-06-30T18:58:59.365Z,3.43
2018-06-30T19:01:28.534Z,3.20
2018-06-30T19:03:57.675Z,3.70
2018-06-30T19:06:27.237Z,3.80
2018-06-30T19:08:56.810Z,3.97
2018-06-30T19:11:27.482Z,3.77
2018-06-30T19:13:57.520Z,4.07
2018-06-30T19:16:27.384Z,3.40
2018-06-30T19:18:57.125Z,3.50
2018-06-30T19:21:27.160Z,3.50
2018-06-30T19:23:56.820Z,3.50
2018-06-30T19:26:26.521Z,3.57
2018-06-30T19:28:56.274Z,3.40
2018-06-30T19:31:27.016Z,3.33
2018-06-30T19:33:56.692Z,3.67
2018-06-30T19:36:28.454Z,3.90
2018-06-30T19:38:58.144Z,4.03
2018-06-30T19:41:28.676Z,3.90
2018-06-30T19:43:58.111Z,3.40
2018-06-30T19:46:27.788Z,3.67
2018-06-30T19:48:57.471Z,4.30
2018-06-30T19:51:27.261Z,4.00
2018-06-30T19:53:57.167Z,3.57
2018-06-30T19:56:26.898Z,3.97
2018-06-30T19:58:56.043Z,3.80
2018-06-30T20:01:25.965Z,4.00
2018-06-30T20:04:22.289Z,4.00
2018-06-30T20:06:52.100Z,4.10
2018-06-30T20:09:24.642Z,3.60
2018-06-30T20:12:02.159Z,3.80
2018-06-30T20:14:33.234Z,4.20
2018-06-30T20:17:02.857Z,3.50
2018-06-30T20:19:32.545Z,3.87
2018-06-30T20:22:03.635Z,3.57
2018-06-30T20:24:37.711Z,3.77
2018-06-30T20:27:10.320Z,3.63
2018-06-30T20:29:40.482Z,3.50
2018-06-30T20:32:10.391Z,3.90
2018-06-30T20:34:40.565Z,3.87
2018-06-30T20:37:10.290Z,3.50
2018-06-30T20:39:41.012Z,3.70
2018-06-30T20:42:15.795Z,3.90
2018-06-30T20:44:55.956Z,3.93
2018-06-30T20:47:32.182Z,3.70
2018-06-30T20:50:02.786Z,3.80
2018-06-30T20:52:32.780Z,3.90
2018-06-30T20:55:01.859Z,3.90
2018-06-30T20:57:32.035Z,3.93
2018-06-30T21:00:02.552Z,3.70
2018-06-30T21:02:35.996Z,3.93
2018-06-30T21:05:06.103Z,3.50
2018-06-30T21:07:36.352Z,3.30
2018-06-30T21:10:06.380Z,3.30
2018-06-30T21:12:38.343Z,3.67
2018-06-30T21:15:08.159Z,3.60
2018-06-30T21:17:37.830Z,3.50
2018-06-30T21:20:07.818Z,3.67
2018-06-30T21:22:38.064Z,3.37
2018-06-30T21:25:24.036Z,3.77
2018-06-30T21:27:58.424Z,3.50
2018-06-30T21:30:36.304Z,3.40
2018-06-30T21:33:12.176Z,3.37
2018-06-30T21:35:42.399Z,3.67
2018-06-30T21:38:13.955Z,3.40
2018-06-30T21:40:43.932Z,3.80
2018-06-30T21:43:13.883Z,3.53
2018-06-30T21:45:44.462Z,3.80
2018-06-30T21:48:14.297Z,4.10
2018-06-30T21:50:44.327Z,3.70
2018-06-30T21:53:14.384Z,4.07
2018-06-30T21:55:44.086Z,4.07
2018-06-30T21:58:27.317Z,4.20
2018-06-30T22:01:03.134Z,4.20
2018-06-30T22:03:32.882Z,4.30
2018-06-30T22:06:02.866Z,4.07
2018-06-30T22:08:32.647Z,4.20
2018-06-30T22:11:03.784Z,4.10
2018-06-30T22:13:33.482Z,4.23
2018-06-30T22:16:03.593Z,4.63
2018-06-30T22:18:33.608Z,4.40
2018-06-30T22:21:03.598Z,4.50
2018-06-30T22:23:32.809Z,4.50
2018-06-30T22:26:03.215Z,4.53
2018-06-30T22:28:33.119Z,3.97
2018-06-30T22:31:03.051Z,4.30
2018-06-30T22:33:33.049Z,4.30
2018-06-30T22:36:03.062Z,4.27
2018-06-30T22:38:33.072Z,4.13
2018-06-30T22:41:03.231Z,4.87
2018-06-30T22:43:33.125Z,4.50
2018-06-30T22:46:04.725Z,4.23
2018-06-30T22:48:34.614Z,4.63
2018-06-30T22:51:03.915Z,4.30
2018-06-30T22:53:40.276Z,4.13
2018-06-30T22:56:10.364Z,4.13
2018-06-30T22:58:40.276Z,4.60
2018-06-30T23:01:10.308Z,4.30
2018-06-30T23:03:39.996Z,3.97
2018-06-30T23:06:09.932Z,4.50
2018-06-30T23:08:55.394Z,3.63
2018-06-30T23:11:25.557Z,4.00
2018-06-30T23:13:54.495Z,4.40
2018-06-30T23:16:24.766Z,4.23
2018-06-30T23:18:54.333Z,4.67
2018-06-30T23:21:24.413Z,4.43
2018-06-30T23:23:54.413Z,4.27
2018-06-30T23:26:24.727Z,4.40
2018-06-30T23:28:54.574Z,4.30
2018-06-30T23:31:24.624Z,4.20
2018-06-30T23:33:54.548Z,4.43
2018-06-30T23:36:24.604Z,4.30
2018-06-30T23:38:54.736Z,3.70
2018-06-30T23:41:25.099Z,3.87
2018-06-30T23:43:55.098Z,3.90
2018-06-30T23:46:24.619Z,4.20
2018-06-30T23:48:54.607Z,4.20
2018-06-30T23:51:24.348Z,4.30
2018-06-30T23:53:53.883Z,4.40
2018-06-30T23:56:23.673Z,3.70
2018-06-30T23:58:53.680Z,4.27
